ENSD Informações do Aeroporto

Informações da Pista
Pista 09 Comprimento 2756 ft Largura 98 ft
Elevação 181 ft Limite 0 ft Heading 0
Pista 27 Comprimento 2756 ft Largura 98 ft
Elevação 179 ft Limite 0 ft Heading 0
Frequências do Aeroporto
Navaids do Aeroporto
Tipo NDB Nome Anda Frequência 288 KHZ
Informações meteorológicas do aeroporto e NOTAM
ADDS - METARS form results

(0556 UTC 25 September 2020)
Data provider http://aviationweather.gov/metar/data/
 
METAR text: ENSD 250550Z VRB01KT 9999 SCT026 BKN036 06/04 Q1004 RMK WIND 1138FT 29005KT
Conditions at: ENSD (SANDANE/ANDA , NO) observed 0550 UTC 25 September 2020
Temperature: 6.0°C (43°F)
Dewpoint: 4.0°C (39°F) [RH = 87%]
Pressure (altimeter): 29.65 inches Hg (1004.0 mb)
Winds: variable direction winds at 1 MPH (1 knots; 0.5 m/s)
Visibility: 6 or more miles (10+ km)
Ceiling: 3600 feet AGL
Clouds: scattered clouds at 2600 feet AGL
broken clouds at 3600 feet AGL
Weather: no significant weather observed at this time

METAR text: ENSD 250520Z 32004KT 9999 SCT026 BKN036 07/04 Q1004 RMK WIND 1138FT 30003KT
Conditions at: ENSD (SANDANE/ANDA , NO) observed 0520 UTC 25 September 2020
Temperature: 7.0°C (45°F)
Dewpoint: 4.0°C (39°F) [RH = 81%]
Pressure (altimeter): 29.65 inches Hg (1004.0 mb)
Winds: from the NW (320 degrees) at 5 MPH (4 knots; 2.1 m/s)
Visibility: 6 or more miles (10+ km)
Ceiling: 3600 feet AGL
Clouds: scattered clouds at 2600 feet AGL
broken clouds at 3600 feet AGL
Weather: no significant weather observed at this time